sensor_id;sensor_type;location;lat;lon;timestamp;temperature;humidity
16327;DHT22;34812;49.846;9.610;2023-02-19T00:00:53;10.90;99.90
16327;DHT22;34812;49.846;9.610;2023-02-19T00:01:55;10.90;99.90
16327;DHT22;34812;49.846;9.610;2023-02-19T00:02:56;10.90;99.90
16327;DHT22;34812;49.846;9.610;2023-02-19T00:03:59;10.80;99.90
16327;DHT22;34812;49.846;9.610;2023-02-19T00:05:01;10.80;99.90
16327;DHT22;34812;49.846;9.610;2023-02-19T00:06:02;10.80;99.90
16327;DHT22;34812;49.846;9.610;2023-02-19T00:07:04;10.80;99.90
16327;DHT22;34812;49.846;9.610;2023-02-19T00:08:05;10.80;99.90
16327;DHT22;34812;49.846;9.610;2023-02-19T00:09:08;10.80;99.90
16327;DHT22;34812;49.846;9.610;2023-02-19T00:10:09;10.80;99.90
16327;DHT22;34812;49.846;9.610;2023-02-19T00:11:13;10.80;99.90
16327;DHT22;34812;49.846;9.610;2023-02-19T00:12:15;10.80;99.90
16327;DHT22;34812;49.846;9.610;2023-02-19T00:13:17;10.80;99.90
16327;DHT22;34812;49.846;9.610;2023-02-19T00:14:19;10.80;99.90
16327;DHT22;34812;49.846;9.610;2023-02-19T00:15:21;10.90;99.90
16327;DHT22;34812;49.846;9.610;2023-02-19T00:16:24;10.90;99.90
16327;DHT22;34812;49.846;9.610;2023-02-19T00:17:25;10.90;99.90
16327;DHT22;34812;49.846;9.610;2023-02-19T00:18:27;10.80;99.90
16327;DHT22;34812;49.846;9.610;2023-02-19T00:19:28;10.80;99.90
16327;DHT22;34812;49.846;9.610;2023-02-19T00:20:30;10.80;99.90
16327;DHT22;34812;49.846;9.610;2023-02-19T00:21:31;10.80;99.90
16327;DHT22;34812;49.846;9.610;2023-02-19T00:22:33;10.90;99.90
16327;DHT22;34812;49.846;9.610;2023-02-19T00:23:34;10.90;99.90
16327;DHT22;34812;49.846;9.610;2023-02-19T00:24:36;10.90;99.90
16327;DHT22;34812;49.846;9.610;2023-02-19T00:25:37;10.90;99.90
16327;DHT22;34812;49.846;9.610;2023-02-19T00:26:39;10.90;99.90
16327;DHT22;34812;49.846;9.610;2023-02-19T00:27:42;10.90;99.90
16327;DHT22;34812;49.846;9.610;2023-02-19T00:28:44;10.80;99.90
16327;DHT22;34812;49.846;9.610;2023-02-19T00:29:45;10.80;99.90
16327;DHT22;34812;49.846;9.610;2023-02-19T00:30:47;10.80;99.90
16327;DHT22;34812;49.846;9.610;2023-02-19T00:31:48;10.80;99.90
16327;DHT22;34812;49.846;9.610;2023-02-19T00:32:50;10.80;99.90
16327;DHT22;34812;49.846;9.610;2023-02-19T00:33:52;10.70;99.90
16327;DHT22;34812;49.846;9.610;2023-02-19T00:34:54;10.80;99.90
16327;DHT22;34812;49.846;9.610;2023-02-19T00:35:58;10.80;99.90
16327;DHT22;34812;49.846;9.610;2023-02-19T00:37:00;10.80;99.90
16327;DHT22;34812;49.846;9.610;2023-02-19T00:38:02;10.80;99.90
16327;DHT22;34812;49.846;9.610;2023-02-19T00:39:05;10.70;99.90
16327;DHT22;34812;49.846;9.610;2023-02-19T00:40:08;10.70;99.90
16327;DHT22;34812;49.846;9.610;2023-02-19T00:41:09;10.80;99.90
16327;DHT22;34812;49.846;9.610;2023-02-19T00:42:20;10.80;99.90
16327;DHT22;34812;49.846;9.610;2023-02-19T00:43:22;10.70;99.90
16327;DHT22;34812;49.846;9.610;2023-02-19T00:44:24;10.70;99.90
16327;DHT22;34812;49.846;9.610;2023-02-19T00:45:25;10.70;99.90
16327;DHT22;34812;49.846;9.610;2023-02-19T00:46:28;10.70;99.90
16327;DHT22;34812;49.846;9.610;2023-02-19T00:47:29;10.70;99.90
16327;DHT22;34812;49.846;9.610;2023-02-19T00:48:31;10.70;99.90
16327;DHT22;34812;49.846;9.610;2023-02-19T00:49:32;10.70;99.90
16327;DHT22;34812;49.846;9.610;2023-02-19T00:50:33;10.70;99.90
16327;DHT22;34812;49.846;9.610;2023-02-19T00:51:36;10.70;99.90
16327;DHT22;34812;49.846;9.610;2023-02-19T00:52:38;10.70;99.90
16327;DHT22;34812;49.846;9.610;2023-02-19T00:53:39;10.60;99.90
16327;DHT22;34812;49.846;9.610;2023-02-19T00:54:41;10.70;99.90
16327;DHT22;34812;49.846;9.610;2023-02-19T00:55:42;10.60;99.90
16327;DHT22;34812;49.846;9.610;2023-02-19T00:56:44;10.60;99.90
16327;DHT22;34812;49.846;9.610;2023-02-19T00:57:44;10.60;99.90
16327;DHT22;34812;49.846;9.610;2023-02-19T00:58:48;10.60;99.90
16327;DHT22;34812;49.846;9.610;2023-02-19T00:59:49;10.60;99.90
16327;DHT22;34812;49.846;9.610;2023-02-19T01:00:51;10.60;99.90
16327;DHT22;34812;49.846;9.610;2023-02-19T01:01:53;10.60;99.90
16327;DHT22;34812;49.846;9.610;2023-02-19T01:02:55;10.60;99.90
16327;DHT22;34812;49.846;9.610;2023-02-19T01:03:59;10.60;99.90
16327;DHT22;34812;49.846;9.610;2023-02-19T01:05:01;10.60;99.90
16327;DHT22;34812;49.846;9.610;2023-02-19T01:06:02;10.60;99.90
16327;DHT22;34812;49.846;9.610;2023-02-19T01:07:04;10.60;99.90
16327;DHT22;34812;49.846;9.610;2023-02-19T01:08:05;10.70;99.90
16327;DHT22;34812;49.846;9.610;2023-02-19T01:09:07;10.60;99.90
16327;DHT22;34812;49.846;9.610;2023-02-19T01:10:08;10.70;99.90
16327;DHT22;34812;49.846;9.610;2023-02-19T01:11:10;10.60;99.90
16327;DHT22;34812;49.846;9.610;2023-02-19T01:12:11;10.70;99.90
16327;DHT22;34812;49.846;9.610;2023-02-19T01:13:14;10.60;99.90
16327;DHT22;34812;49.846;9.610;2023-02-19T01:14:16;10.70;99.90
16327;DHT22;34812;49.846;9.610;2023-02-19T01:15:18;10.70;99.90
16327;DHT22;34812;49.846;9.610;2023-02-19T01:16:21;10.70;99.90
16327;DHT22;34812;49.846;9.610;2023-02-19T01:17:24;10.70;99.90
16327;DHT22;34812;49.846;9.610;2023-02-19T01:18:26;10.70;99.90
16327;DHT22;34812;49.846;9.610;2023-02-19T01:19:27;10.70;99.90
16327;DHT22;34812;49.846;9.610;2023-02-19T01:20:29;10.60;99.90
16327;DHT22;34812;49.846;9.610;2023-02-19T01:21:30;10.70;99.90
16327;DHT22;34812;49.846;9.610;2023-02-19T01:22:32;10.70;99.90
16327;DHT22;34812;49.846;9.610;2023-02-19T01:23:33;10.70;99.90
16327;DHT22;34812;49.846;9.610;2023-02-19T01:24:35;10.70;99.90
16327;DHT22;34812;49.846;9.610;2023-02-19T01:25:37;10.70;99.90
16327;DHT22;34812;49.846;9.610;2023-02-19T01:26:39;10.70;99.90
16327;DHT22;34812;49.846;9.610;2023-02-19T01:27:40;10.70;99.90
16327;DHT22;34812;49.846;9.610;2023-02-19T01:28:41;10.70;99.90
16327;DHT22;34812;49.846;9.610;2023-02-19T01:29:44;10.70;99.90
16327;DHT22;34812;49.846;9.610;2023-02-19T01:30:46;10.70;99.90
16327;DHT22;34812;49.846;9.610;2023-02-19T01:31:46;10.70;99.90
16327;DHT22;34812;49.846;9.610;2023-02-19T01:32:48;10.60;99.90
16327;DHT22;34812;49.846;9.610;2023-02-19T01:33:52;10.60;99.90
16327;DHT22;34812;49.846;9.610;2023-02-19T01:34:54;10.60;99.90
16327;DHT22;34812;49.846;9.610;2023-02-19T01:35:55;10.60;99.90
16327;DHT22;34812;49.846;9.610;2023-02-19T01:36:57;10.60;99.90
16327;DHT22;34812;49.846;9.610;2023-02-19T01:37:58;10.60;99.90
16327;DHT22;34812;49.846;9.610;2023-02-19T01:39:00;10.60;99.90
16327;DHT22;34812;49.846;9.610;2023-02-19T01:40:03;10.60;99.90
16327;DHT22;34812;49.846;9.610;2023-02-19T01:41:07;10.60;99.90
16327;DHT22;34812;49.846;9.610;2023-02-19T01:42:12;10.60;99.90
16327;DHT22;34812;49.846;9.610;2023-02-19T01:43:15;10.60;99.90
16327;DHT22;34812;49.846;9.610;2023-02-19T01:46:02;10.60;99.90
16327;DHT22;34812;49.846;9.610;2023-02-19T01:47:04;10.50;99.90
16327;DHT22;34812;49.846;9.610;2023-02-19T01:48:08;10.50;99.90
16327;DHT22;34812;49.846;9.610;2023-02-19T01:49:14;10.50;99.90
16327;DHT22;34812;49.846;9.610;2023-02-19T01:50:18;10.50;99.90
16327;DHT22;34812;49.846;9.610;2023-02-19T01:51:20;10.50;99.90
16327;DHT22;34812;49.846;9.610;2023-02-19T01:52:23;10.50;99.90
16327;DHT22;34812;49.846;9.610;2023-02-19T01:53:30;10.50;99.90
16327;DHT22;34812;49.846;9.610;2023-02-19T01:54:35;10.50;99.90
16327;DHT22;34812;49.846;9.610;2023-02-19T01:55:38;10.50;99.90
16327;DHT22;34812;49.846;9.610;2023-02-19T01:56:41;10.50;99.90
16327;DHT22;34812;49.846;9.610;2023-02-19T01:57:46;10.50;99.90
16327;DHT22;34812;49.846;9.610;2023-02-19T01:58:50;10.50;99.90
16327;DHT22;34812;49.846;9.610;2023-02-19T02:00:04;10.50;99.90
16327;DHT22;34812;49.846;9.610;2023-02-19T02:01:14;10.50;99.90
16327;DHT22;34812;49.846;9.610;2023-02-19T02:02:16;10.50;99.90
16327;DHT22;34812;49.846;9.610;2023-02-19T02:03:17;10.50;99.90
16327;DHT22;34812;49.846;9.610;2023-02-19T02:04:19;10.60;99.90
16327;DHT22;34812;49.846;9.610;2023-02-19T02:05:30;10.50;99.90
16327;DHT22;34812;49.846;9.610;2023-02-19T02:06:40;10.50;99.90
16327;DHT22;34812;49.846;9.610;2023-02-19T02:07:42;10.50;99.90
16327;DHT22;34812;49.846;9.610;2023-02-19T02:09:01;10.40;99.90
16327;DHT22;34812;49.846;9.610;2023-02-19T02:10:21;10.50;99.90
16327;DHT22;34812;49.846;9.610;2023-02-19T02:11:23;10.40;99.90
16327;DHT22;34812;49.846;9.610;2023-02-19T02:12:25;10.50;99.90
16327;DHT22;34812;49.846;9.610;2023-02-19T02:13:26;10.40;99.90
16327;DHT22;34812;49.846;9.610;2023-02-19T02:14:31;10.40;99.90
16327;DHT22;34812;49.846;9.610;2023-02-19T02:15:38;10.40;99.90
16327;DHT22;34812;49.846;9.610;2023-02-19T02:16:50;10.50;99.90
16327;DHT22;34812;49.846;9.610;2023-02-19T02:17:56;10.50;99.90
16327;DHT22;34812;49.846;9.610;2023-02-19T02:19:14;10.50;99.90
16327;DHT22;34812;49.846;9.610;2023-02-19T02:20:31;10.50;99.90
16327;DHT22;34812;49.846;9.610;2023-02-19T02:21:42;10.50;99.90
16327;DHT22;34812;49.846;9.610;2023-02-19T02:22:51;10.50;99.90
16327;DHT22;34812;49.846;9.610;2023-02-19T02:24:10;10.50;99.90
16327;DHT22;34812;49.846;9.610;2023-02-19T02:26:55;10.40;99.90
16327;DHT22;34812;49.846;9.610;2023-02-19T02:28:16;10.40;99.90
16327;DHT22;34812;49.846;9.610;2023-02-19T02:29:53;10.40;99.90
16327;DHT22;34812;49.846;9.610;2023-02-19T02:31:02;10.40;99.90
16327;DHT22;34812;49.846;9.610;2023-02-19T02:32:07;10.40;99.90
16327;DHT22;34812;49.846;9.610;2023-02-19T02:33:20;10.40;99.90
16327;DHT22;34812;49.846;9.610;2023-02-19T02:34:24;10.40;99.90
16327;DHT22;34812;49.846;9.610;2023-02-19T02:35:29;10.40;99.90
16327;DHT22;34812;49.846;9.610;2023-02-19T02:36:35;10.40;99.90
16327;DHT22;34812;49.846;9.610;2023-02-19T02:37:39;10.30;99.90
16327;DHT22;34812;49.846;9.610;2023-02-19T02:38:44;10.30;99.90
16327;DHT22;34812;49.846;9.610;2023-02-19T02:39:47;10.30;99.90
16327;DHT22;34812;49.846;9.610;2023-02-19T02:40:49;10.30;99.90
16327;DHT22;34812;49.846;9.610;2023-02-19T02:41:55;10.30;99.90
16327;DHT22;34812;49.846;9.610;2023-02-19T02:43:18;10.30;99.90
16327;DHT22;34812;49.846;9.610;2023-02-19T02:44:20;10.30;99.90
16327;DHT22;34812;49.846;9.610;2023-02-19T02:45:26;10.30;99.90
16327;DHT22;34812;49.846;9.610;2023-02-19T02:46:44;10.30;99.90
16327;DHT22;34812;49.846;9.610;2023-02-19T02:47:52;10.30;99.90
16327;DHT22;34812;49.846;9.610;2023-02-19T02:48:56;10.30;99.90
16327;DHT22;34812;49.846;9.610;2023-02-19T02:49:59;10.20;99.90
16327;DHT22;34812;49.846;9.610;2023-02-19T02:51:12;10.20;99.90
16327;DHT22;34812;49.846;9.610;2023-02-19T02:52:23;10.30;99.90
16327;DHT22;34812;49.846;9.610;2023-02-19T02:53:42;10.30;99.90
16327;DHT22;34812;49.846;9.610;2023-02-19T02:55:07;10.30;99.90
16327;DHT22;34812;49.846;9.610;2023-02-19T02:56:09;10.30;99.90
16327;DHT22;34812;49.846;9.610;2023-02-19T02:57:12;10.30;99.90
16327;DHT22;34812;49.846;9.610;2023-02-19T02:58:21;10.30;99.90
16327;DHT22;34812;49.846;9.610;2023-02-19T02:59:27;10.20;99.90
16327;DHT22;34812;49.846;9.610;2023-02-19T03:00:31;10.20;99.90
16327;DHT22;34812;49.846;9.610;2023-02-19T03:01:59;10.10;99.90
16327;DHT22;34812;49.846;9.610;2023-02-19T03:03:11;10.10;99.90
16327;DHT22;34812;49.846;9.610;2023-02-19T03:04:19;10.00;99.90
16327;DHT22;34812;49.846;9.610;2023-02-19T03:05:23;10.00;99.90
16327;DHT22;34812;49.846;9.610;2023-02-19T03:06:46;10.00;99.90
16327;DHT22;34812;49.846;9.610;2023-02-19T03:07:53;10.00;99.90
16327;DHT22;34812;49.846;9.610;2023-02-19T03:08:59;10.00;99.90
16327;DHT22;34812;49.846;9.610;2023-02-19T03:10:06;10.00;99.90
16327;DHT22;34812;49.846;9.610;2023-02-19T03:11:10;10.00;99.90
16327;DHT22;34812;49.846;9.610;2023-02-19T03:12:32;10.00;99.90
16327;DHT22;34812;49.846;9.610;2023-02-19T03:13:57;10.00;99.90
16327;DHT22;34812;49.846;9.610;2023-02-19T03:15:18;10.00;99.90
16327;DHT22;34812;49.846;9.610;2023-02-19T03:16:42;10.00;99.90
16327;DHT22;34812;49.846;9.610;2023-02-19T03:18:06;10.00;99.90
16327;DHT22;34812;49.846;9.610;2023-02-19T03:19:28;9.90;99.90
16327;DHT22;34812;49.846;9.610;2023-02-19T03:20:34;9.90;99.90
16327;DHT22;34812;49.846;9.610;2023-02-19T03:21:38;9.90;99.90
16327;DHT22;34812;49.846;9.610;2023-02-19T03:22:42;9.90;99.90
16327;DHT22;34812;49.846;9.610;2023-02-19T03:23:44;9.90;99.90
16327;DHT22;34812;49.846;9.610;2023-02-19T03:25:09;9.90;99.90
16327;DHT22;34812;49.846;9.610;2023-02-19T03:26:47;9.90;99.90
16327;DHT22;34812;49.846;9.610;2023-02-19T03:27:56;9.90;99.90
16327;DHT22;34812;49.846;9.610;2023-02-19T03:28:59;9.90;99.90
16327;DHT22;34812;49.846;9.610;2023-02-19T03:30:22;9.90;99.90
16327;DHT22;34812;49.846;9.610;2023-02-19T03:31:28;9.90;99.90
16327;DHT22;34812;49.846;9.610;2023-02-19T03:32:37;9.90;99.90
16327;DHT22;34812;49.846;9.610;2023-02-19T03:33:41;9.90;99.90
16327;DHT22;34812;49.846;9.610;2023-02-19T03:34:47;9.90;99.90
16327;DHT22;34812;49.846;9.610;2023-02-19T03:35:52;9.90;99.90
16327;DHT22;34812;49.846;9.610;2023-02-19T03:36:59;9.90;99.90
16327;DHT22;34812;49.846;9.610;2023-02-19T03:38:05;9.90;99.90
16327;DHT22;34812;49.846;9.610;2023-02-19T03:39:10;9.90;99.90
16327;DHT22;34812;49.846;9.610;2023-02-19T03:40:13;9.80;99.90
16327;DHT22;34812;49.846;9.610;2023-02-19T03:41:20;9.80;99.90
16327;DHT22;34812;49.846;9.610;2023-02-19T03:42:32;9.80;99.90
16327;DHT22;34812;49.846;9.610;2023-02-19T03:43:39;9.70;99.90
16327;DHT22;34812;49.846;9.610;2023-02-19T03:44:45;9.70;99.90
16327;DHT22;34812;49.846;9.610;2023-02-19T03:45:55;9.70;99.90
16327;DHT22;34812;49.846;9.610;2023-02-19T03:47:03;9.70;99.90
16327;DHT22;34812;49.846;9.610;2023-02-19T03:48:24;9.70;99.90
16327;DHT22;34812;49.846;9.610;2023-02-19T03:49:36;9.60;99.90
16327;DHT22;34812;49.846;9.610;2023-02-19T03:50:45;9.60;99.90
16327;DHT22;34812;49.846;9.610;2023-02-19T03:51:50;9.50;99.90
16327;DHT22;34812;49.846;9.610;2023-02-19T03:53:02;9.50;99.90
16327;DHT22;34812;49.846;9.610;2023-02-19T03:54:11;9.50;99.90
16327;DHT22;34812;49.846;9.610;2023-02-19T03:55:16;9.60;99.90
16327;DHT22;34812;49.846;9.610;2023-02-19T03:56:25;9.60;99.90
16327;DHT22;34812;49.846;9.610;2023-02-19T03:57:33;9.70;99.90
16327;DHT22;34812;49.846;9.610;2023-02-19T03:58:40;9.70;99.90
16327;DHT22;34812;49.846;9.610;2023-02-19T03:59:49;9.80;99.90
16327;DHT22;34812;49.846;9.610;2023-02-19T04:00:54;9.80;99.90
16327;DHT22;34812;49.846;9.610;2023-02-19T04:01:59;9.90;99.90
16327;DHT22;34812;49.846;9.610;2023-02-19T04:03:07;9.90;99.90
16327;DHT22;34812;49.846;9.610;2023-02-19T04:04:17;9.90;99.90
16327;DHT22;34812;49.846;9.610;2023-02-19T04:05:21;10.00;99.90
16327;DHT22;34812;49.846;9.610;2023-02-19T04:06:28;10.00;99.90
16327;DHT22;34812;49.846;9.610;2023-02-19T04:07:32;10.00;99.90
16327;DHT22;34812;49.846;9.610;2023-02-19T04:08:36;10.00;99.90
16327;DHT22;34812;49.846;9.610;2023-02-19T04:09:42;10.00;99.90
16327;DHT22;34812;49.846;9.610;2023-02-19T04:10:49;10.00;99.90
16327;DHT22;34812;49.846;9.610;2023-02-19T04:11:52;10.00;99.90
16327;DHT22;34812;49.846;9.610;2023-02-19T04:12:59;10.10;99.90
16327;DHT22;34812;49.846;9.610;2023-02-19T04:14:04;10.10;99.90
16327;DHT22;34812;49.846;9.610;2023-02-19T04:15:10;10.10;99.90
16327;DHT22;34812;49.846;9.610;2023-02-19T04:16:16;10.10;99.90
16327;DHT22;34812;49.846;9.610;2023-02-19T04:17:20;10.10;99.90
16327;DHT22;34812;49.846;9.610;2023-02-19T04:18:25;10.10;99.90
16327;DHT22;34812;49.846;9.610;2023-02-19T04:19:32;10.20;99.90
16327;DHT22;34812;49.846;9.610;2023-02-19T04:20:38;10.20;99.90
16327;DHT22;34812;49.846;9.610;2023-02-19T04:21:42;10.10;99.90
16327;DHT22;34812;49.846;9.610;2023-02-19T04:22:44;10.10;99.90
16327;DHT22;34812;49.846;9.610;2023-02-19T04:23:46;10.10;99.90
16327;DHT22;34812;49.846;9.610;2023-02-19T04:24:49;10.10;99.90
16327;DHT22;34812;49.846;9.610;2023-02-19T04:25:55;10.10;99.90
16327;DHT22;34812;49.846;9.610;2023-02-19T04:26:57;10.10;99.90
16327;DHT22;34812;49.846;9.610;2023-02-19T04:28:00;10.00;99.90
16327;DHT22;34812;49.846;9.610;2023-02-19T04:29:02;10.00;99.90
16327;DHT22;34812;49.846;9.610;2023-02-19T04:30:06;10.10;99.90
16327;DHT22;34812;49.846;9.610;2023-02-19T04:31:08;10.10;99.90
16327;DHT22;34812;49.846;9.610;2023-02-19T04:32:11;10.10;99.90
16327;DHT22;34812;49.846;9.610;2023-02-19T04:33:12;10.20;99.90
16327;DHT22;34812;49.846;9.610;2023-02-19T04:34:14;10.20;99.90
16327;DHT22;34812;49.846;9.610;2023-02-19T04:35:16;10.20;99.90
16327;DHT22;34812;49.846;9.610;2023-02-19T04:36:18;10.20;99.90
16327;DHT22;34812;49.846;9.610;2023-02-19T04:37:18;10.20;99.90
16327;DHT22;34812;49.846;9.610;2023-02-19T04:38:20;9.20;99.90
16327;DHT22;34812;49.846;9.610;2023-02-19T04:39:21;10.20;99.90
16327;DHT22;34812;49.846;9.610;2023-02-19T04:40:23;10.20;99.90
16327;DHT22;34812;49.846;9.610;2023-02-19T04:41:24;10.10;99.90
16327;DHT22;34812;49.846;9.610;2023-02-19T04:42:26;10.10;99.90
16327;DHT22;34812;49.846;9.610;2023-02-19T04:43:26;10.00;99.90
16327;DHT22;34812;49.846;9.610;2023-02-19T04:44:28;10.00;99.90
16327;DHT22;34812;49.846;9.610;2023-02-19T04:45:29;10.00;99.90
16327;DHT22;34812;49.846;9.610;2023-02-19T04:46:31;10.00;99.90
16327;DHT22;34812;49.846;9.610;2023-02-19T04:47:32;9.90;99.90
16327;DHT22;34812;49.846;9.610;2023-02-19T04:48:34;9.90;99.90
16327;DHT22;34812;49.846;9.610;2023-02-19T04:49:34;9.90;99.90
16327;DHT22;34812;49.846;9.610;2023-02-19T04:50:38;9.80;99.90
16327;DHT22;34812;49.846;9.610;2023-02-19T04:51:39;9.80;99.90
16327;DHT22;34812;49.846;9.610;2023-02-19T04:52:41;9.80;99.90
16327;DHT22;34812;49.846;9.610;2023-02-19T04:53:42;9.80;99.90
16327;DHT22;34812;49.846;9.610;2023-02-19T04:54:44;9.80;99.90
16327;DHT22;34812;49.846;9.610;2023-02-19T04:55:45;9.80;99.90
16327;DHT22;34812;49.846;9.610;2023-02-19T04:56:47;9.70;99.90
16327;DHT22;34812;49.846;9.610;2023-02-19T04:57:50;9.70;99.90
16327;DHT22;34812;49.846;9.610;2023-02-19T04:58:51;9.70;99.90
16327;DHT22;34812;49.846;9.610;2023-02-19T04:59:52;9.60;99.90
16327;DHT22;34812;49.846;9.610;2023-02-19T05:00:54;9.60;99.90
16327;DHT22;34812;49.846;9.610;2023-02-19T05:01:55;9.60;99.90
16327;DHT22;34812;49.846;9.610;2023-02-19T05:02:58;9.60;99.90
16327;DHT22;34812;49.846;9.610;2023-02-19T05:03:58;9.60;99.90
16327;DHT22;34812;49.846;9.610;2023-02-19T05:05:00;9.50;99.90
16327;DHT22;34812;49.846;9.610;2023-02-19T05:06:03;9.50;99.90
16327;DHT22;34812;49.846;9.610;2023-02-19T05:07:05;9.50;99.90
16327;DHT22;34812;49.846;9.610;2023-02-19T05:08:06;9.50;99.90
16327;DHT22;34812;49.846;9.610;2023-02-19T05:09:08;9.50;99.90
16327;DHT22;34812;49.846;9.610;2023-02-19T05:10:09;9.50;99.90
16327;DHT22;34812;49.846;9.610;2023-02-19T05:11:11;9.40;99.90
16327;DHT22;34812;49.846;9.610;2023-02-19T05:12:12;9.40;99.90
16327;DHT22;34812;49.846;9.610;2023-02-19T05:13:13;9.40;99.90
16327;DHT22;34812;49.846;9.610;2023-02-19T05:14:14;9.50;99.90
16327;DHT22;34812;49.846;9.610;2023-02-19T05:15:16;9.50;99.90
16327;DHT22;34812;49.846;9.610;2023-02-19T05:16:17;9.50;99.90
16327;DHT22;34812;49.846;9.610;2023-02-19T05:17:19;9.50;99.90
16327;DHT22;34812;49.846;9.610;2023-02-19T05:18:20;9.40;99.90
16327;DHT22;34812;49.846;9.610;2023-02-19T05:19:21;9.40;99.90
16327;DHT22;34812;49.846;9.610;2023-02-19T05:20:22;9.40;99.90
16327;DHT22;34812;49.846;9.610;2023-02-19T05:21:25;9.40;99.90
16327;DHT22;34812;49.846;9.610;2023-02-19T05:22:27;9.40;99.90
16327;DHT22;34812;49.846;9.610;2023-02-19T05:23:29;9.40;99.90
16327;DHT22;34812;49.846;9.610;2023-02-19T05:24:30;9.40;99.90
16327;DHT22;34812;49.846;9.610;2023-02-19T05:25:32;9.40;99.90
16327;DHT22;34812;49.846;9.610;2023-02-19T05:26:33;9.40;99.90
16327;DHT22;34812;49.846;9.610;2023-02-19T05:27:35;9.40;99.90
16327;DHT22;34812;49.846;9.610;2023-02-19T05:28:35;9.40;99.90
16327;DHT22;34812;49.846;9.610;2023-02-19T05:29:37;9.30;99.90
16327;DHT22;34812;49.846;9.610;2023-02-19T05:30:38;9.30;99.90
16327;DHT22;34812;49.846;9.610;2023-02-19T05:31:40;9.20;99.90
16327;DHT22;34812;49.846;9.610;2023-02-19T05:32:41;9.20;99.90
16327;DHT22;34812;49.846;9.610;2023-02-19T05:33:43;9.20;99.90
16327;DHT22;34812;49.846;9.610;2023-02-19T05:34:45;9.20;99.90
16327;DHT22;34812;49.846;9.610;2023-02-19T05:35:48;9.10;99.90
16327;DHT22;34812;49.846;9.610;2023-02-19T05:36:52;9.10;99.90
16327;DHT22;34812;49.846;9.610;2023-02-19T05:37:52;9.20;99.90
16327;DHT22;34812;49.846;9.610;2023-02-19T05:38:55;9.10;99.90
16327;DHT22;34812;49.846;9.610;2023-02-19T05:39:56;9.20;99.90
16327;DHT22;34812;49.846;9.610;2023-02-19T05:41:06;9.20;99.90
16327;DHT22;34812;49.846;9.610;2023-02-19T05:42:07;9.20;99.90
16327;DHT22;34812;49.846;9.610;2023-02-19T05:43:09;9.20;99.90
16327;DHT22;34812;49.846;9.610;2023-02-19T05:44:10;9.20;99.90
16327;DHT22;34812;49.846;9.610;2023-02-19T05:45:12;9.20;99.90
16327;DHT22;34812;49.846;9.610;2023-02-19T05:46:15;9.10;99.90
16327;DHT22;34812;49.846;9.610;2023-02-19T05:47:17;9.20;99.90
16327;DHT22;34812;49.846;9.610;2023-02-19T05:48:17;9.20;99.90
16327;DHT22;34812;49.846;9.610;2023-02-19T05:49:19;9.20;99.90
16327;DHT22;34812;49.846;9.610;2023-02-19T05:50:20;9.20;99.90
16327;DHT22;34812;49.846;9.610;2023-02-19T05:51:23;9.20;99.90
16327;DHT22;34812;49.846;9.610;2023-02-19T05:52:25;9.30;99.90
16327;DHT22;34812;49.846;9.610;2023-02-19T05:53:27;9.30;99.90
16327;DHT22;34812;49.846;9.610;2023-02-19T05:54:28;9.30;99.90
16327;DHT22;34812;49.846;9.610;2023-02-19T05:55:33;9.30;99.90
16327;DHT22;34812;49.846;9.610;2023-02-19T05:56:35;9.30;99.90
16327;DHT22;34812;49.846;9.610;2023-02-19T05:57:39;9.40;99.90
16327;DHT22;34812;49.846;9.610;2023-02-19T05:58:41;9.40;99.90
16327;DHT22;34812;49.846;9.610;2023-02-19T05:59:42;9.40;99.90
16327;DHT22;34812;49.846;9.610;2023-02-19T06:00:43;9.40;99.90
16327;DHT22;34812;49.846;9.610;2023-02-19T06:01:45;9.40;99.90
16327;DHT22;34812;49.846;9.610;2023-02-19T06:02:47;9.40;99.90
16327;DHT22;34812;49.846;9.610;2023-02-19T06:03:48;9.40;99.90
16327;DHT22;34812;49.846;9.610;2023-02-19T06:04:49;9.40;99.90
16327;DHT22;34812;49.846;9.610;2023-02-19T06:05:51;9.50;99.90
16327;DHT22;34812;49.846;9.610;2023-02-19T06:06:52;9.60;99.90
16327;DHT22;34812;49.846;9.610;2023-02-19T06:07:55;9.50;99.90
16327;DHT22;34812;49.846;9.610;2023-02-19T06:08:56;9.60;99.90
16327;DHT22;34812;49.846;9.610;2023-02-19T06:09:58;9.60;99.90
16327;DHT22;34812;49.846;9.610;2023-02-19T06:10:58;9.70;99.90
16327;DHT22;34812;49.846;9.610;2023-02-19T06:12:00;9.70;99.90
16327;DHT22;34812;49.846;9.610;2023-02-19T06:13:01;9.70;99.90
16327;DHT22;34812;49.846;9.610;2023-02-19T06:14:03;9.80;99.90
16327;DHT22;34812;49.846;9.610;2023-02-19T06:15:04;9.80;99.90
16327;DHT22;34812;49.846;9.610;2023-02-19T06:16:08;9.80;99.90
16327;DHT22;34812;49.846;9.610;2023-02-19T06:17:09;9.80;99.90
16327;DHT22;34812;49.846;9.610;2023-02-19T06:18:11;9.80;99.90
16327;DHT22;34812;49.846;9.610;2023-02-19T06:19:11;9.80;99.90
16327;DHT22;34812;49.846;9.610;2023-02-19T06:20:13;9.80;99.90
16327;DHT22;34812;49.846;9.610;2023-02-19T06:21:15;9.80;99.90
16327;DHT22;34812;49.846;9.610;2023-02-19T06:22:17;9.90;99.90
16327;DHT22;34812;49.846;9.610;2023-02-19T06:23:19;9.90;99.90
16327;DHT22;34812;49.846;9.610;2023-02-19T06:24:21;9.90;99.90
16327;DHT22;34812;49.846;9.610;2023-02-19T06:25:22;9.90;99.90
16327;DHT22;34812;49.846;9.610;2023-02-19T06:26:24;9.90;99.90
16327;DHT22;34812;49.846;9.610;2023-02-19T06:27:25;9.90;99.90
16327;DHT22;34812;49.846;9.610;2023-02-19T06:28:27;9.90;99.90
16327;DHT22;34812;49.846;9.610;2023-02-19T06:29:28;9.90;99.90
16327;DHT22;34812;49.846;9.610;2023-02-19T06:30:31;9.90;99.90
16327;DHT22;34812;49.846;9.610;2023-02-19T06:31:32;9.90;99.90
16327;DHT22;34812;49.846;9.610;2023-02-19T06:32:34;9.90;99.90
16327;DHT22;34812;49.846;9.610;2023-02-19T06:33:36;9.80;99.90
16327;DHT22;34812;49.846;9.610;2023-02-19T06:34:39;9.80;99.90
16327;DHT22;34812;49.846;9.610;2023-02-19T06:35:40;9.80;99.90
16327;DHT22;34812;49.846;9.610;2023-02-19T06:36:42;9.80;99.90
16327;DHT22;34812;49.846;9.610;2023-02-19T06:37:45;9.90;99.90
16327;DHT22;34812;49.846;9.610;2023-02-19T06:38:48;9.80;99.90
16327;DHT22;34812;49.846;9.610;2023-02-19T06:39:50;9.80;99.90
16327;DHT22;34812;49.846;9.610;2023-02-19T06:40:51;9.80;99.90
16327;DHT22;34812;49.846;9.610;2023-02-19T06:41:54;9.80;99.90
16327;DHT22;34812;49.846;9.610;2023-02-19T06:42:55;9.80;99.90
16327;DHT22;34812;49.846;9.610;2023-02-19T06:43:56;9.80;99.90
16327;DHT22;34812;49.846;9.610;2023-02-19T06:44:57;9.80;99.90
16327;DHT22;34812;49.846;9.610;2023-02-19T06:46:00;9.70;99.90
16327;DHT22;34812;49.846;9.610;2023-02-19T06:47:01;9.70;99.90
16327;DHT22;34812;49.846;9.610;2023-02-19T06:48:03;9.70;99.90
16327;DHT22;34812;49.846;9.610;2023-02-19T06:49:05;9.80;99.90
16327;DHT22;34812;49.846;9.610;2023-02-19T06:50:07;9.80;99.90
16327;DHT22;34812;49.846;9.610;2023-02-19T06:51:10;9.80;99.90
16327;DHT22;34812;49.846;9.610;2023-02-19T06:52:12;9.80;99.90
16327;DHT22;34812;49.846;9.610;2023-02-19T06:53:13;9.80;99.90